Time;durP1;ratioP1;P1;durP2;ratioP2;P2;SDS_P1;SDS_P2;PMS_P1;PMS_P2;Temp;Humidity;BMP_temperature;BMP_pressure;BME280_temperature;BME280_humidity;BME280_pressure;Samples;Min_cycle;Max_cycle;Signal;HPM_P1;HPM_P2
2022/09/06 00:01:35;;;;;;;0.40;0.40;;;;;;;23.69;40.43;101018.25;5145854;28;20038;-81
2022/09/06 00:04:05;;;;;;;2.90;1.13;;;;;;;23.45;42.19;101024.53;5156699;28;20049;-83
2022/09/06 00:06:36;;;;;;;0.90;0.60;;;;;;;23.66;41.80;101029.22;5137500;28;20125;-84
2022/09/06 00:09:06;;;;;;;0.55;0.52;;;;;;;23.52;43.25;101041.84;5157534;28;20038;-82
2022/09/06 00:11:37;;;;;;;1.00;0.63;;;;;;;23.25;43.82;101063.53;5154766;28;20462;-83
2022/09/06 00:14:07;;;;;;;0.95;0.93;;;;;;;23.47;41.94;101065.44;5148087;28;20038;-84
2022/09/06 00:16:39;;;;;;;0.40;0.40;;;;;;;23.47;42.07;101067.28;5161901;28;20058;-82
2022/09/06 00:19:09;;;;;;;6.35;1.10;;;;;;;23.57;42.54;101071.81;5146298;28;20042;-85
2022/09/06 00:21:40;;;;;;;0.63;0.63;;;;;;;23.37;47.15;101081.38;5143160;28;20493;-84
2022/09/06 00:24:11;;;;;;;0.50;0.50;;;;;;;23.12;48.89;101093.03;5140644;28;20039;-83
2022/09/06 00:26:41;;;;;;;0.57;0.57;;;;;;;23.06;48.91;101098.84;5162463;28;20030;-82
2022/09/06 00:29:11;;;;;;;1.70;0.95;;;;;;;22.85;50.86;101098.59;5157717;28;20401;-82
2022/09/06 00:31:42;;;;;;;2.78;1.05;;;;;;;23.14;48.89;101093.78;5144839;28;20033;-82
2022/09/06 00:34:13;;;;;;;0.47;0.47;;;;;;;22.94;51.68;101106.78;5126011;28;20101;-81
2022/09/06 00:36:43;;;;;;;0.40;0.40;;;;;;;22.81;50.30;101108.66;5146793;28;20034;-82
2022/09/06 00:39:14;;;;;;;1.00;0.88;;;;;;;22.88;50.26;101114.44;5159104;28;20047;-83
2022/09/06 00:41:44;;;;;;;3.72;0.50;;;;;;;22.72;52.05;101130.72;5164539;28;20069;-82
2022/09/06 00:44:15;;;;;;;0.40;0.40;;;;;;;22.82;51.70;101114.84;5156086;28;20031;-83
2022/09/06 00:46:48;;;;;;;0.30;0.30;;;;;;;22.85;49.28;101123.50;5170513;28;20056;-82
2022/09/06 00:49:27;;;;;;;;;;;;;;;22.92;49.54;101126.59;5151138;28;20038;-81
2022/09/06 00:52:05;;;;;;;0.20;0.20;;;;;;;22.93;48.59;101101.56;5139379;28;19918;-83
2022/09/06 00:54:38;;;;;;;1.42;1.08;;;;;;;22.97;47.35;101089.69;5130612;28;20246;-84
2022/09/06 00:57:15;;;;;;;0.50;0.50;;;;;;;23.01;47.32;101091.16;5161386;28;20378;-82
2022/09/06 00:59:50;;;;;;;0.30;0.30;;;;;;;23.08;47.66;101088.88;5162626;28;20030;-82
2022/09/06 01:02:21;;;;;;;0.45;0.45;;;;;;;23.06;47.14;101080.09;5160304;28;20034;-84
2022/09/06 01:04:53;;;;;;;0.30;0.30;;;;;;;22.98;47.09;101080.66;5163036;28;20030;-83
2022/09/06 01:07:42;;;;;;;1.75;1.65;;;;;;;22.97;47.29;101083.47;5168441;28;20493;-85
2022/09/06 01:10:20;;;;;;;0.43;0.43;;;;;;;22.93;54.95;101088.19;5168714;28;20362;-82
2022/09/06 01:13:03;;;;;;;0.40;0.40;;;;;;;22.94;48.52;101077.38;5125534;28;20072;-84
2022/09/06 01:15:53;;;;;;;0.40;0.40;;;;;;;22.85;53.16;101059.31;5124060;28;20235;-85
2022/09/06 01:18:37;;;;;;;0.70;0.70;;;;;;;22.77;50.04;101053.66;5164436;28;20042;-84
2022/09/06 01:21:42;;;;;;;0.88;0.88;;;;;;;22.93;49.62;101061.44;5147446;28;20041;-83
2022/09/06 01:24:34;;;;;;;0.40;0.40;;;;;;;22.88;51.72;101067.13;5149799;28;20455;-82
2022/09/06 01:27:54;;;;;;;0.75;0.75;;;;;;;22.87;50.44;101065.41;5143823;28;20424;-83
2022/09/06 01:30:25;;;;;;;0.25;0.25;;;;;;;22.86;49.54;101063.69;5129239;28;20068;-84
2022/09/06 01:33:05;;;;;;;0.45;0.40;;;;;;;22.83;49.90;101079.13;5148066;28;20070;-81
2022/09/06 01:35:53;;;;;;;0.57;0.55;;;;;;;22.80;49.72;101080.22;5147700;28;20023;-82
2022/09/06 01:38:23;;;;;;;0.65;0.65;;;;;;;22.79;49.22;101062.44;5143680;28;20516;-84
2022/09/06 01:40:54;;;;;;;0.20;0.20;;;;;;;22.72;49.46;101062.06;5161284;28;20038;-82
2022/09/06 01:43:32;;;;;;;0.30;0.30;;;;;;;22.69;48.97;101064.06;5162130;28;20061;-81
2022/09/06 01:46:18;;;;;;;0.73;0.73;;;;;;;22.68;48.73;101076.59;5161743;28;20022;-81
2022/09/06 01:48:49;;;;;;;0.40;0.40;;;;;;;22.67;48.91;101068.72;5157554;28;20042;-81
2022/09/06 01:51:28;;;;;;;0.25;0.25;;;;;;;22.67;48.37;101074.06;5146070;28;20037;-81
2022/09/06 01:54:25;;;;;;;0.30;0.30;;;;;;;22.68;48.78;101081.13;5160292;28;20111;-82
2022/09/06 01:57:20;;;;;;;1.35;1.08;;;;;;;22.62;48.88;101066.38;5129525;28;20460;-83
2022/09/06 02:00:03;;;;;;;0.30;0.30;;;;;;;22.60;48.57;101066.47;5158842;28;20113;-81
2022/09/06 02:03:06;;;;;;;0.40;0.40;;;;;;;22.67;52.60;101079.41;5146347;28;20042;-82
2022/09/06 02:05:58;;;;;;;6.88;0.65;;;;;;;22.62;51.66;101074.38;5173304;28;20027;-86
2022/09/06 02:08:41;;;;;;;0.63;0.50;;;;;;;22.65;50.69;101082.16;5155678;28;20037;-85
2022/09/06 02:11:14;;;;;;;0.20;0.20;;;;;;;22.61;51.01;101067.31;5157163;28;20037;-82
2022/09/06 02:13:55;;;;;;;0.50;0.50;;;;;;;22.55;50.36;101065.94;5162665;28;20034;-85
2022/09/06 02:16:28;;;;;;;0.60;0.60;;;;;;;22.51;50.45;101059.13;5177759;28;20045;-84
2022/09/06 02:19:09;;;;;;;0.88;0.28;;;;;;;22.51;50.11;101039.53;5160399;28;20448;-84
2022/09/06 02:21:44;;;;;;;0.57;0.57;;;;;;;22.50;50.20;101024.47;5145024;28;20042;-82
2022/09/06 02:24:21;;;;;;;0.35;0.35;;;;;;;22.54;49.84;101000.06;5168006;28;20493;-82
2022/09/06 02:26:52;;;;;;;0.28;0.28;;;;;;;22.58;50.17;101001.56;5162339;28;20097;-84
2022/09/06 02:29:22;;;;;;;0.28;0.28;;;;;;;22.45;51.77;100990.03;5157369;28;20536;-84
2022/09/06 02:32:00;;;;;;;0.30;0.30;;;;;;;22.35;53.52;100989.84;5162297;28;20042;-82
2022/09/06 02:34:30;;;;;;;4.13;0.40;;;;;;;22.35;50.90;100992.50;5159211;28;20267;-82
2022/09/06 02:37:01;;;;;;;0.40;0.40;;;;;;;22.31;51.08;100983.88;5160116;28;20034;-82
2022/09/06 02:39:32;;;;;;;0.47;0.47;;;;;;;22.34;50.10;100993.47;5143044;28;20033;-84
2022/09/06 02:42:03;;;;;;;0.43;0.43;;;;;;;22.30;49.91;100992.84;5142677;28;20607;-82
2022/09/06 02:44:34;;;;;;;0.60;0.60;;;;;;;22.27;50.19;100998.41;5163167;28;20038;-84
2022/09/06 02:47:05;;;;;;;0.40;0.40;;;;;;;22.30;50.12;100992.84;5160003;28;20050;-82
2022/09/06 02:49:35;;;;;;;3.08;1.23;;;;;;;22.26;50.33;100996.72;5157172;28;20437;-82
2022/09/06 02:52:06;;;;;;;0.45;0.45;;;;;;;22.27;50.23;100987.72;5160778;28;20114;-85
2022/09/06 02:54:36;;;;;;;0.38;0.38;;;;;;;22.28;49.95;100986.75;5161799;28;20111;-82
2022/09/06 02:57:07;;;;;;;0.68;0.68;;;;;;;22.27;50.30;100982.34;5145972;28;20501;-82
2022/09/06 02:59:37;;;;;;;0.30;0.30;;;;;;;22.21;50.12;100981.97;5162808;28;20030;-85
2022/09/06 03:02:08;;;;;;;0.80;0.65;;;;;;;22.21;50.18;100981.97;5164639;28;20366;-82
2022/09/06 03:04:38;;;;;;;1.30;1.00;;;;;;;22.21;49.84;100982.81;5164462;28;20026;-84
2022/09/06 03:07:09;;;;;;;0.82;0.82;;;;;;;22.21;50.22;100987.31;5162942;28;20030;-82
2022/09/06 03:09:40;;;;;;;1.02;0.85;;;;;;;22.25;50.26;100983.44;5145665;28;20019;-82
2022/09/06 03:12:10;;;;;;;0.40;0.40;;;;;;;22.20;50.18;100983.78;5161098;28;20235;-82
2022/09/06 03:14:41;;;;;;;0.40;0.40;;;;;;;22.17;50.09;100978.66;5158057;28;20058;-84
2022/09/06 03:17:11;;;;;;;0.55;0.55;;;;;;;22.20;50.59;100973.09;5136485;28;20427;-83
2022/09/06 03:19:42;;;;;;;0.50;0.50;;;;;;;22.23;50.24;100980.06;5165617;28;20030;-80
2022/09/06 03:22:12;;;;;;;0.70;0.70;;;;;;;22.16;50.37;100984.97;5157957;28;20144;-80
2022/09/06 03:24:43;;;;;;;0.65;0.65;;;;;;;22.15;51.40;100980.59;5131178;28;20046;-82
2022/09/06 03:27:13;;;;;;;2.40;0.60;;;;;;;22.10;51.31;100980.91;5156282;28;20089;-84
2022/09/06 03:29:44;;;;;;;0.85;0.70;;;;;;;22.10;51.06;100980.09;5184635;28;20664;-84
2022/09/06 03:32:15;;;;;;;0.50;0.50;;;;;;;22.08;50.90;100990.00;5157316;28;20129;-86
2022/09/06 03:34:45;;;;;;;1.25;1.15;;;;;;;22.06;51.29;100989.25;5172510;28;20011;-83
2022/09/06 03:37:16;;;;;;;0.95;0.40;;;;;;;22.05;50.78;100992.91;5161915;28;20105;-83
2022/09/06 03:39:46;;;;;;;0.47;0.47;;;;;;;22.03;51.09;100998.34;5169598;28;20034;-84
2022/09/06 03:42:17;;;;;;;0.38;0.30;;;;;;;22.06;51.26;101006.16;5162000;28;20049;-85
2022/09/06 03:44:47;;;;;;;0.20;0.20;;;;;;;22.06;51.02;100994.59;5174114;28;20038;-85
2022/09/06 03:47:19;;;;;;;0.30;0.30;;;;;;;22.05;50.93;100992.91;5156614;28;20110;-85
2022/09/06 03:49:50;;;;;;;1.38;0.70;;;;;;;22.00;51.12;101001.22;5172516;28;20034;-85
2022/09/06 03:52:20;;;;;;;0.40;0.40;;;;;;;22.03;51.14;101003.69;5182007;28;20098;-86
2022/09/06 03:54:51;;;;;;;0.30;0.30;;;;;;;21.98;51.17;100995.16;5168914;28;20026;-82
2022/09/06 03:57:22;;;;;;;0.40;0.40;;;;;;;21.94;51.17;101002.53;5190324;28;20035;-81
2022/09/06 03:59:52;;;;;;;0.38;0.38;;;;;;;21.91;51.29;101005.44;5199599;28;20030;-80
2022/09/06 04:02:23;;;;;;;0.43;0.43;;;;;;;21.89;51.35;100993.16;5182702;28;20041;-79
2022/09/06 04:04:54;;;;;;;0.57;0.57;;;;;;;21.91;50.99;100984.06;5163666;28;20130;-79
2022/09/06 04:07:24;;;;;;;0.20;0.20;;;;;;;21.90;51.17;100974.34;5173503;28;20054;-79
2022/09/06 04:09:55;;;;;;;0.47;0.47;;;;;;;21.88;51.39;100986.94;5159558;28;20042;-79
2022/09/06 04:12:25;;;;;;;0.93;0.88;;;;;;;21.85;51.26;100980.00;5152321;28;20038;-81
2022/09/06 04:14:56;;;;;;;0.30;0.30;;;;;;;21.82;51.38;100977.53;5179922;28;20022;-83
2022/09/06 04:17:26;;;;;;;0.20;0.20;;;;;;;21.90;51.95;100982.34;5160583;28;20049;-83
2022/09/06 04:19:57;;;;;;;0.38;0.38;;;;;;;21.83;51.51;100987.25;5175168;28;20026;-83
2022/09/06 04:22:27;;;;;;;0.45;0.45;;;;;;;21.83;51.45;100984.59;5146583;28;20046;-82
2022/09/06 04:24:59;;;;;;;0.40;0.40;;;;;;;21.79;51.53;100977.78;5155883;28;20030;-81
2022/09/06 04:27:30;;;;;;;0.70;0.57;;;;;;;21.75;51.53;100978.09;5150265;28;20070;-82
2022/09/06 04:30:01;;;;;;;0.40;0.40;;;;;;;21.69;51.59;100980.22;5133474;28;20151;-82
2022/09/06 04:32:31;;;;;;;4.70;1.42;;;;;;;21.66;51.60;100983.13;5147730;28;20508;-81
2022/09/06 04:35:02;;;;;;;0.60;0.60;;;;;;;21.68;51.97;100980.31;5155666;28;20022;-82
2022/09/06 04:37:33;;;;;;;0.75;0.75;;;;;;;21.64;51.77;100979.69;5167314;28;20034;-82
2022/09/06 04:40:03;;;;;;;0.50;0.50;;;;;;;21.62;51.71;100983.44;5152655;28;20042;-81
2022/09/06 04:42:34;;;;;;;1.15;1.08;;;;;;;21.70;55.60;100983.75;5168466;28;20034;-81
2022/09/06 04:45:05;;;;;;;0.80;0.80;;;;;;;21.58;52.91;100987.25;5138048;28;20049;-81
2022/09/06 04:47:36;;;;;;;0.82;0.82;;;;;;;21.53;52.95;100977.75;5171643;28;20038;-82
2022/09/06 04:50:07;;;;;;;0.50;0.50;;;;;;;21.55;52.76;100985.63;5139685;28;20191;-82
2022/09/06 04:52:37;;;;;;;4.70;1.38;;;;;;;21.49;52.88;100991.41;5136342;28;20124;-82
2022/09/06 04:55:08;;;;;;;0.55;0.55;;;;;;;21.45;52.26;100989.91;5134139;28;20037;-81
2022/09/06 04:57:38;;;;;;;2.25;0.70;;;;;;;21.41;52.75;100989.25;5137373;28;20532;-82
2022/09/06 05:00:09;;;;;;;0.50;0.50;;;;;;;21.44;52.62;100996.22;5139872;28;20034;-81
2022/09/06 05:02:40;;;;;;;0.93;0.93;;;;;;;21.46;54.82;100987.13;5152195;28;20038;-81
2022/09/06 05:05:10;;;;;;;0.20;0.20;;;;;;;21.38;52.77;100993.00;5150357;28;20094;-81
2022/09/06 05:07:41;;;;;;;0.57;0.57;;;;;;;21.36;53.37;100991.41;5149404;28;20508;-82
2022/09/06 05:10:11;;;;;;;0.52;0.50;;;;;;;21.30;53.16;100998.00;5134553;28;20090;-81
2022/09/06 05:12:42;;;;;;;0.90;0.88;;;;;;;21.28;52.52;100996.41;5135029;28;20030;-81
2022/09/06 05:15:13;;;;;;;0.63;0.50;;;;;;;21.25;52.79;101000.13;5139052;28;20030;-81
2022/09/06 05:17:43;;;;;;;0.82;0.75;;;;;;;21.30;54.04;101000.66;5149110;28;20145;-82
2022/09/06 05:20:15;;;;;;;0.50;0.50;;;;;;;21.23;52.92;101002.91;5162847;28;20065;-82
2022/09/06 05:22:54;;;;;;;3.83;2.17;;;;;;;21.16;53.40;101006.94;5142699;28;20041;-81
2022/09/06 05:25:25;;;;;;;1.17;1.13;;;;;;;21.22;52.99;101000.34;5144241;28;20034;-81
2022/09/06 05:27:55;;;;;;;2.22;1.38;;;;;;;21.17;52.86;100994.47;5158958;28;20069;-80
2022/09/06 05:30:25;;;;;;;1.40;1.00;;;;;;;21.15;52.95;100993.72;5161078;28;20046;-80
2022/09/06 05:32:56;;;;;;;0.98;0.98;;;;;;;21.14;52.88;101000.00;5158471;28;20096;-81
2022/09/06 05:35:26;;;;;;;0.50;0.50;;;;;;;21.13;53.05;101000.94;5160227;28;20034;-81
2022/09/06 05:37:57;;;;;;;1.38;1.23;;;;;;;21.09;52.94;101000.31;5159179;28;20496;-81
2022/09/06 05:40:28;;;;;;;1.00;1.00;;;;;;;21.09;53.17;100999.47;5159810;28;20101;-82
2022/09/06 05:42:58;;;;;;;7.47;1.00;;;;;;;21.09;53.36;100999.47;5150945;28;20034;-82
2022/09/06 05:45:29;;;;;;;1.00;1.00;;;;;;;21.07;53.28;101003.09;5147246;28;20034;-83
2022/09/06 05:47:59;;;;;;;7.05;1.35;;;;;;;21.04;53.04;101005.94;5146069;28;20041;-85
2022/09/06 05:50:30;;;;;;;0.85;0.60;;;;;;;21.01;53.22;101002.63;5142260;28;20504;-84
2022/09/06 05:53:01;;;;;;;1.05;0.95;;;;;;;21.01;55.18;101011.50;5126789;28;20038;-83
2022/09/06 05:55:31;;;;;;;0.30;0.30;;;;;;;21.04;53.95;101016.63;5148937;28;20022;-84
2022/09/06 05:58:02;;;;;;;0.55;0.55;;;;;;;20.98;53.79;101006.38;5141065;28;20070;-83
2022/09/06 06:00:32;;;;;;;0.68;0.68;;;;;;;20.94;54.24;101006.66;5140608;28;20023;-84
2022/09/06 06:03:03;;;;;;;0.35;0.35;;;;;;;20.93;53.63;101008.50;5126106;28;20042;-83
2022/09/06 06:05:33;;;;;;;0.40;0.40;;;;;;;20.95;56.04;101009.22;5173885;28;20027;-84
2022/09/06 06:08:03;;;;;;;0.30;0.30;;;;;;;20.95;54.55;101009.22;5139793;28;20501;-84
2022/09/06 06:10:34;;;;;;;1.17;1.08;;;;;;;20.90;54.14;101011.34;5155381;28;20073;-84
2022/09/06 06:13:05;;;;;;;9.52;1.85;;;;;;;20.86;56.28;101016.03;5141979;28;20034;-84
2022/09/06 06:15:35;;;;;;;0.80;0.80;;;;;;;20.93;55.42;101016.50;5127370;28;20092;-84
2022/09/06 06:18:06;;;;;;;2.28;1.25;;;;;;;20.91;54.83;101002.41;5160487;28;20477;-84
2022/09/06 06:20:36;;;;;;;0.60;0.60;;;;;;;20.88;54.73;101000.78;5147170;28;20045;-84
2022/09/06 06:23:07;;;;;;;0.30;0.30;;;;;;;20.91;56.84;100999.72;5144988;28;20034;-83
2022/09/06 06:25:37;;;;;;;0.85;0.82;;;;;;;20.88;54.77;100992.78;5160749;28;20030;-84
2022/09/06 06:28:08;;;;;;;0.90;0.82;;;;;;;20.89;54.53;100990.97;5154993;28;20038;-83
2022/09/06 06:30:38;;;;;;;1.27;0.80;;;;;;;20.88;54.49;100994.59;5181293;28;20038;-83
2022/09/06 06:33:08;;;;;;;0.50;0.50;;;;;;;20.86;54.96;100991.19;5138687;28;20077;-83
2022/09/06 06:35:39;;;;;;;0.45;0.45;;;;;;;20.87;54.61;100991.09;5173641;28;20501;-83
2022/09/06 06:38:09;;;;;;;0.60;0.60;;;;;;;20.94;53.80;100983.53;5183238;28;20050;-84
2022/09/06 06:40:44;;;;;;;0.60;0.60;;;;;;;20.97;54.25;100985.13;5178524;28;20034;-84
2022/09/06 06:43:15;;;;;;;0.40;0.40;;;;;;;21.05;54.19;100983.66;5159426;28;20042;-83
2022/09/06 06:45:48;;;;;;;0.65;0.65;;;;;;;21.07;54.36;100992.41;5152861;28;20057;-84
2022/09/06 06:48:22;;;;;;;0.50;0.50;;;;;;;21.14;54.32;100986.66;5148256;28;20041;-83
2022/09/06 06:50:53;;;;;;;1.17;1.08;;;;;;;21.19;54.69;100981.88;5162852;28;20109;-84
2022/09/06 06:53:24;;;;;;;0.52;0.52;;;;;;;21.22;54.73;100987.00;5145788;28;20027;-84
2022/09/06 06:55:54;;;;;;;1.38;1.27;;;;;;;21.28;56.14;100993.72;5159217;28;20070;-83
2022/09/06 06:58:25;;;;;;;4.50;0.80;;;;;;;21.34;54.46;100980.84;5128786;28;20058;-84
2022/09/06 07:00:55;;;;;;;1.35;0.80;;;;;;;21.32;55.43;100985.41;5161538;28;20081;-84
2022/09/06 07:03:26;;;;;;;0.40;0.40;;;;;;;21.32;55.20;100990.75;5162578;28;20114;-83
2022/09/06 07:05:56;;;;;;;2.28;0.90;;;;;;;21.35;55.22;100990.56;5128266;28;20454;-84
2022/09/06 07:08:27;;;;;;;0.20;0.20;;;;;;;21.34;55.41;100986.19;5160904;28;20042;-84
2022/09/06 07:10:58;;;;;;;0.70;0.70;;;;;;;21.38;54.51;100989.47;5146361;28;20522;-84
2022/09/06 07:13:29;;;;;;;0.40;0.40;;;;;;;21.35;55.84;100987.88;5142786;28;20034;-84
2022/09/06 07:16:16;;;;;;;0.50;0.50;;;;;;;21.39;55.51;100981.34;5162665;28;20030;-84
2022/09/06 07:18:51;;;;;;;0.40;0.40;;;;;;;21.38;56.70;100984.97;5167656;28;20141;-83
2022/09/06 07:21:25;;;;;;;9.43;1.67;;;;;;;21.36;56.76;100980.72;5152389;28;20508;-84
2022/09/06 07:23:56;;;;;;;0.73;0.70;;;;;;;21.36;59.38;100981.56;5150352;28;20211;-84
2022/09/06 07:26:31;;;;;;;1.20;1.13;;;;;;;21.39;57.62;100981.34;5181491;28;20596;-84
2022/09/06 07:29:03;;;;;;;0.40;0.40;;;;;;;21.35;61.04;100987.00;5133616;28;20042;-84
2022/09/06 07:31:36;;;;;;;0.83;0.73;;;;;;;21.37;57.22;100972.59;5145060;28;20089;-84
2022/09/06 07:34:06;;;;;;;4.45;0.88;;;;;;;21.45;55.83;100984.56;5160289;28;20057;-84
2022/09/06 07:36:37;;;;;;;0.38;0.38;;;;;;;21.44;56.24;100974.88;5130842;28;20042;-84
2022/09/06 07:39:07;;;;;;;0.50;0.50;;;;;;;21.47;56.32;100974.63;5129033;28;20085;-84
2022/09/06 07:41:38;;;;;;;1.73;0.73;;;;;;;21.52;56.81;100969.84;5161160;28;20413;-84
2022/09/06 07:44:09;;;;;;;0.73;0.73;;;;;;;21.51;56.69;100982.31;5146203;28;20073;-85
2022/09/06 07:46:39;;;;;;;0.60;0.55;;;;;;;21.52;56.75;100984.03;5147611;28;20035;-84
2022/09/06 07:49:12;;;;;;;0.57;0.57;;;;;;;21.64;58.85;100982.38;5164527;28;20081;-84
2022/09/06 07:51:46;;;;;;;0.40;0.40;;;;;;;21.59;58.23;100987.19;5121909;28;20050;-84
2022/09/06 07:54:22;;;;;;;0.52;0.52;;;;;;;21.60;57.18;100988.91;5145027;28;20081;-84
2022/09/06 07:56:52;;;;;;;0.47;0.47;;;;;;;21.64;57.26;100987.69;5130826;28;20042;-84
2022/09/06 07:59:23;;;;;;;0.70;0.65;;;;;;;21.69;56.45;100982.88;5140598;28;20080;-83
2022/09/06 08:01:53;;;;;;;1.35;0.90;;;;;;;21.69;56.50;100988.22;5143154;28;20042;-84
2022/09/06 08:04:24;;;;;;;0.40;0.40;;;;;;;21.74;56.91;100987.06;5160247;28;20034;-84
2022/09/06 08:06:56;;;;;;;0.20;0.20;;;;;;;21.71;57.69;100980.13;5143857;28;20022;-84
2022/09/06 08:09:26;;;;;;;0.55;0.55;;;;;;;21.75;58.07;100983.44;5162741;28;20042;-83
2022/09/06 08:11:57;;;;;;;0.30;0.30;;;;;;;21.80;57.38;100979.47;5130763;28;20042;-84
2022/09/06 08:14:27;;;;;;;0.40;0.40;;;;;;;21.81;58.24;100980.31;5157914;28;20216;-84
2022/09/06 08:17:13;;;;;;;0.55;0.47;;;;;;;21.92;57.02;100977.75;5128900;28;20049;-84
2022/09/06 08:19:44;;;;;;;0.50;0.50;;;;;;;21.91;59.25;100984.06;5149435;28;20437;-84
2022/09/06 08:22:14;;;;;;;0.30;0.30;;;;;;;21.92;59.45;100977.75;5143421;28;20038;-84
2022/09/06 08:24:45;;;;;;;0.75;0.47;;;;;;;21.94;58.87;100974.97;5129460;28;20029;-84
2022/09/06 08:27:15;;;;;;;0.55;0.50;;;;;;;22.07;60.33;100980.28;5128196;28;20038;-84
2022/09/06 08:29:46;;;;;;;0.30;0.30;;;;;;;22.10;57.76;100980.09;5146036;28;20468;-84
2022/09/06 08:32:18;;;;;;;1.02;0.95;;;;;;;22.17;57.21;100968.81;5147877;28;20132;-83
2022/09/06 08:34:48;;;;;;;0.40;0.40;;;;;;;22.19;56.88;100968.69;5127763;28;20397;-84
2022/09/06 08:37:19;;;;;;;2.00;1.35;;;;;;;22.18;57.33;100964.34;5166554;28;20258;-84
2022/09/06 08:39:49;;;;;;;0.45;0.45;;;;;;;22.21;57.81;100969.44;5150585;28;20034;-84
2022/09/06 08:42:20;;;;;;;1.15;1.05;;;;;;;22.32;57.77;100974.00;5160995;28;20062;-84
2022/09/06 08:44:52;;;;;;;0.30;0.30;;;;;;;22.23;58.62;100964.84;5140698;28;20038;-84
2022/09/06 08:47:22;;;;;;;0.90;0.90;;;;;;;22.27;58.15;100966.31;5143426;28;20035;-84
2022/09/06 08:50:04;;;;;;;0.60;0.60;;;;;;;22.29;58.34;100964.41;5156925;28;20049;-83
2022/09/06 08:52:58;;;;;;;0.40;0.40;;;;;;;22.33;57.00;100960.56;5127737;28;20034;-83
2022/09/06 08:55:38;;;;;;;0.30;0.30;;;;;;;22.35;57.44;100954.25;5126702;28;20030;-83
2022/09/06 08:58:30;;;;;;;0.75;0.75;;;;;;;22.41;56.83;100959.16;5162697;28;20041;-83
2022/09/06 09:01:06;;;;;;;4.13;1.80;;;;;;;22.47;57.80;100961.38;5142697;28;20041;-83
2022/09/06 09:03:40;;;;;;;0.60;0.60;;;;;;;22.49;57.71;100954.09;5141148;28;20050;-83
2022/09/06 09:06:11;;;;;;;0.32;0.32;;;;;;;22.55;57.77;100955.47;5168533;28;20034;-83
2022/09/06 09:08:57;;;;;;;1.08;0.63;;;;;;;22.53;57.57;100955.56;5146569;28;20033;-83
2022/09/06 09:11:28;;;;;;;0.20;0.20;;;;;;;22.60;56.33;100939.94;5146923;28;20069;-83
2022/09/06 09:14:27;;;;;;;0.65;0.65;;;;;;;22.65;57.12;100943.09;5126145;28;20064;-83
2022/09/06 09:17:05;;;;;;;0.75;0.75;;;;;;;22.71;57.32;100952.50;5137185;28;20049;-83
2022/09/06 09:19:37;;;;;;;0.40;0.40;;;;;;;22.70;57.10;100953.47;5133802;28;20046;-83
2022/09/06 09:22:08;;;;;;;;;;;;;;;22.77;56.60;100949.34;5161272;28;20445;-83
2022/09/06 09:24:39;;;;;;;1.75;1.25;;;;;;;22.82;55.85;100944.53;5126317;28;19968;-83
2022/09/06 09:27:12;;;;;;;0.32;0.32;;;;;;;22.87;55.99;100937.00;5141134;28;20125;-82
2022/09/06 09:29:52;;;;;;;0.57;0.45;;;;;;;22.97;56.64;100929.16;5143322;28;20096;-83
2022/09/06 09:32:40;;;;;;;0.57;0.57;;;;;;;22.98;57.20;100921.97;5132108;28;20038;-83
2022/09/06 09:35:20;;;;;;;0.38;0.38;;;;;;;23.01;56.04;100919.06;5142714;28;20018;-83
2022/09/06 09:37:59;;;;;;;0.40;0.40;;;;;;;23.05;56.36;100923.19;5137780;28;20035;-83
2022/09/06 09:40:47;;;;;;;1.08;0.55;;;;;;;23.10;56.53;100918.31;5144692;28;20264;-83
2022/09/06 09:43:20;;;;;;;0.35;0.32;;;;;;;23.12;55.82;100913.72;5141532;28;20331;-83
2022/09/06 09:46:09;;;;;;;0.30;0.30;;;;;;;23.21;55.44;100910.34;5134318;28;20053;-83
2022/09/06 09:48:48;;;;;;;0.85;0.55;;;;;;;23.24;54.97;100907.47;5159115;28;20096;-83
2022/09/06 09:51:19;;;;;;;0.75;0.50;;;;;;;23.39;54.96;100904.53;5142299;28;20497;-84
2022/09/06 09:53:55;;;;;;;0.55;0.55;;;;;;;23.41;55.01;100902.59;5147257;28;20117;-83
2022/09/06 09:56:42;;;;;;;0.85;0.85;;;;;;;23.41;54.75;100897.25;5128407;28;20537;-83
2022/09/06 09:59:21;;;;;;;2.83;1.48;;;;;;;23.44;55.41;100907.69;5128570;28;20242;-83
2022/09/06 10:02:00;;;;;;;0.80;0.80;;;;;;;23.49;54.96;100910.03;5162091;28;20078;-82
2022/09/06 10:04:37;;;;;;;0.30;0.30;;;;;;;23.52;54.58;100925.84;5149617;28;20678;-84
2022/09/06 10:07:13;;;;;;;0.20;0.20;;;;;;;23.54;54.33;100931.94;5147799;28;20038;-83
2022/09/06 10:10:06;;;;;;;0.75;0.50;;;;;;;23.55;54.31;100939.84;5149126;28;20034;-83
2022/09/06 10:12:39;;;;;;;0.45;0.45;;;;;;;23.62;53.93;100936.69;5150893;28;20073;-83
2022/09/06 10:15:30;;;;;;;0.28;0.28;;;;;;;23.67;52.33;100940.72;5167505;28;20027;-85
2022/09/06 10:18:01;;;;;;;0.30;0.30;;;;;;;23.68;52.68;100921.00;5162834;28;20050;-83
2022/09/06 10:20:42;;;;;;;0.40;0.40;;;;;;;23.76;52.40;100923.03;5163872;28;20729;-83
2022/09/06 10:23:29;;;;;;;0.38;0.38;;;;;;;23.80;52.07;100926.34;5149306;28;20038;-83
2022/09/06 10:26:26;;;;;;;0.43;0.43;;;;;;;23.88;51.92;100918.56;5131565;28;20033;-84
2022/09/06 10:29:03;;;;;;;0.30;0.30;;;;;;;23.99;51.41;100912.34;5161090;28;20524;-82
2022/09/06 10:32:02;;;;;;;0.10;0.10;;;;;;;24.05;51.27;100920.72;5146718;28;20034;-83
2022/09/06 10:34:47;;;;;;;0.20;0.20;;;;;;;23.97;50.99;100923.16;5142020;28;20034;-83
2022/09/06 10:37:36;;;;;;;0.50;0.50;;;;;;;23.96;51.26;100915.25;5148216;28;20034;-83
2022/09/06 10:40:18;;;;;;;0.20;0.20;;;;;;;24.02;51.46;100909.41;5145957;28;20117;-83
2022/09/06 10:42:55;;;;;;;0.28;0.28;;;;;;;24.09;50.86;100899.88;5139799;28;20042;-83
2022/09/06 10:45:50;;;;;;;0.70;0.52;;;;;;;24.09;51.19;100896.38;5123055;28;20396;-83
2022/09/06 10:48:30;;;;;;;0.20;0.20;;;;;;;24.11;50.95;100911.34;5145809;28;20500;-84
2022/09/06 10:51:20;;;;;;;0.30;0.30;;;;;;;24.16;51.43;100902.91;5121223;28;20680;-83
2022/09/06 10:53:59;;;;;;;0.20;0.20;;;;;;;24.36;50.47;100904.81;5158556;28;20061;-83
2022/09/06 10:56:51;;;;;;;0.80;0.80;;;;;;;24.31;50.48;100896.28;5159051;28;20061;-83
2022/09/06 10:59:32;;;;;;;3.75;1.48;;;;;;;24.36;51.04;100902.16;5142242;28;20046;-83
2022/09/06 11:02:36;;;;;;;0.20;0.20;;;;;;;24.40;51.12;100889.31;5155801;28;20370;-83
2022/09/06 11:05:13;;;;;;;0.30;0.30;;;;;;;24.64;50.30;100894.44;5156650;28;20121;-84
2022/09/06 11:07:49;;;;;;;0.43;0.43;;;;;;;24.62;50.46;100895.56;5119921;28;20086;-83
2022/09/06 11:10:30;;;;;;;0.50;0.50;;;;;;;24.66;49.91;100905.06;5128658;28;20502;-83
2022/09/06 11:13:21;;;;;;;0.40;0.40;;;;;;;24.74;49.76;100899.94;5126951;28;20038;-83
2022/09/06 11:16:01;;;;;;;0.30;0.30;;;;;;;24.74;49.85;100899.06;5165516;28;20117;-84
2022/09/06 11:18:36;;;;;;;0.73;0.73;;;;;;;24.95;48.61;100904.44;5164930;28;20030;-83
2022/09/06 11:21:28;;;;;;;0.38;0.38;;;;;;;25.31;47.80;100896.91;5140309;28;20126;-83
2022/09/06 11:24:05;;;;;;;0.50;0.50;;;;;;;25.44;48.21;100897.56;5141630;28;20053;-83
2022/09/06 11:27:18;;;;;;;0.30;0.30;;;;;;;25.33;48.70;100910.19;5128894;28;20030;-83
2022/09/06 11:29:55;;;;;;;0.63;0.63;;;;;;;25.28;48.90;100905.22;5171683;28;20054;-83
2022/09/06 11:32:48;;;;;;;0.40;0.40;;;;;;;25.42;48.75;100898.69;5156821;28;20038;-84
2022/09/06 11:35:26;;;;;;;0.20;0.20;;;;;;;25.49;48.06;100901.69;5137744;28;20037;-83
2022/09/06 11:38:05;;;;;;;2.50;0.95;;;;;;;25.63;47.44;100898.63;5156865;28;20030;-84
2022/09/06 11:40:40;;;;;;;0.38;0.38;;;;;;;25.62;48.02;100910.34;5141181;28;20038;-85
2022/09/06 11:43:49;;;;;;;0.43;0.43;;;;;;;25.70;47.97;100897.09;5142907;28;20038;-84
2022/09/06 11:46:49;;;;;;;0.30;0.30;;;;;;;25.75;48.09;100892.16;5155497;28;20034;-84
2022/09/06 11:49:28;;;;;;;0.40;0.40;;;;;;;25.93;47.88;100896.88;5124434;28;20038;-83
2022/09/06 11:51:59;;;;;;;0.50;0.50;;;;;;;26.16;47.10;100888.59;5158716;28;20042;-81
2022/09/06 11:54:41;;;;;;;0.20;0.20;;;;;;;26.21;47.22;100887.19;5146424;28;20015;-80
2022/09/06 11:57:16;;;;;;;0.17;0.17;;;;;;;26.14;47.40;100874.47;5174484;28;20042;-81
2022/09/06 11:59:46;;;;;;;0.30;0.30;;;;;;;26.14;47.60;100875.28;5139741;28;20257;-81
2022/09/06 12:02:41;;;;;;;0.20;0.20;;;;;;;26.26;46.73;100875.19;5161169;28;20105;-81
2022/09/06 12:05:14;;;;;;;0.30;0.30;;;;;;;26.35;46.75;100877.03;5162200;28;20027;-81